SVA861 RPLL-OERK
Flight info
| Callsign | SVA861 |
|---|---|
| Flight time | N/A |
| Altitude | 32000 |
| Route | SIRCA2R SIRCA L628 DODUS/N0507F280 L628 ARESI/K0941F320 L628 PCA G474 ANINA/N0508F320 G474 VEMKO M633 UGIPA/N0501F340 M633 TANEK L301 BUSBO L505 KAMOL/N0495F360 L505 EXOLU M638 KARKU L301 RASKI N881 KIPOL L444 TOLDA M628 PEKEM/N0509F280 M628 MIGMA M550 MEVDO Y511 BOSOB M321 NAGUB |
| Aircraft | B77W/H-SDE1E2E3FGHIJ2J3J4J5M1RWXY/LB1D1 |
Departure
| Time | N/A |
|---|---|
| Airport | Ninoy Aquino International Airport (RPLL) |
Arrival
| Time | 2026-04-27 09:36 |
|---|---|
| Airport | King Khalid International Airport (OERK) |
| Time | Latitude | Longitude | Altitude | Speed | Heading |
|---|---|---|---|---|---|
| 2026-04-27 07:56 | 23.01104 | 56.91409 | 35983 ft | 456 kts | 274° |
| 2026-04-27 07:56 | 23.01185 | 56.88002 | 35980 ft | 456 kts | 274° |
| 2026-04-27 07:57 | 23.01350 | 56.81052 | 35966 ft | 467 kts | 274° |
| 2026-04-27 07:57 | 23.01514 | 56.73953 | 35952 ft | 475 kts | 274° |
| 2026-04-27 07:58 | 23.01674 | 56.66826 | 35937 ft | 473 kts | 274° |
| 2026-04-27 07:58 | 23.01831 | 56.59714 | 35922 ft | 474 kts | 274° |
| 2026-04-27 07:59 | 23.01986 | 56.52559 | 35909 ft | 473 kts | 274° |
| 2026-04-27 07:59 | 23.02211 | 56.41896 | 35893 ft | 473 kts | 274° |
| 2026-04-27 08:00 | 23.02357 | 56.34798 | 35885 ft | 473 kts | 274° |
| 2026-04-27 08:00 | 23.02498 | 56.27663 | 35894 ft | 472 kts | 274° |
| 2026-04-27 08:01 | 23.02632 | 56.20519 | 35892 ft | 473 kts | 274° |
| 2026-04-27 08:01 | 23.02762 | 56.13430 | 35884 ft | 474 kts | 274° |
| 2026-04-27 08:02 | 23.02889 | 56.06314 | 35881 ft | 474 kts | 274° |
| 2026-04-27 08:02 | 23.03014 | 55.99165 | 35873 ft | 473 kts | 274° |
| 2026-04-27 08:03 | 23.03135 | 55.92041 | 35864 ft | 473 kts | 274° |
| 2026-04-27 08:03 | 23.03254 | 55.84921 | 35853 ft | 472 kts | 274° |
| 2026-04-27 08:04 | 23.03371 | 55.77827 | 35847 ft | 472 kts | 273° |
| 2026-04-27 08:04 | 23.03485 | 55.70748 | 35845 ft | 473 kts | 273° |
| 2026-04-27 08:05 | 23.03595 | 55.63647 | 35844 ft | 472 kts | 273° |
| 2026-04-27 08:05 | 23.03702 | 55.56543 | 35847 ft | 472 kts | 273° |
| 2026-04-27 08:06 | 23.03807 | 55.49441 | 35846 ft | 473 kts | 273° |
| 2026-04-27 08:06 | 23.03911 | 55.42301 | 35843 ft | 472 kts | 273° |
| 2026-04-27 08:07 | 23.04012 | 55.35197 | 35840 ft | 473 kts | 273° |
| 2026-04-27 08:07 | 23.03684 | 55.28089 | 35845 ft | 476 kts | 262° |
| 2026-04-27 08:08 | 23.02341 | 55.21051 | 35848 ft | 478 kts | 261° |
| 2026-04-27 08:08 | 23.00961 | 55.14037 | 35850 ft | 477 kts | 261° |
| 2026-04-27 08:09 | 22.99573 | 55.06989 | 35856 ft | 477 kts | 261° |
| 2026-04-27 08:09 | 22.98185 | 54.99956 | 35852 ft | 477 kts | 261° |
| 2026-04-27 08:10 | 22.96806 | 54.92985 | 35853 ft | 477 kts | 261° |
| 2026-04-27 08:10 | 22.95411 | 54.85951 | 35841 ft | 477 kts | 261° |
| 2026-04-27 08:11 | 22.94012 | 54.78907 | 35838 ft | 478 kts | 261° |
| 2026-04-27 08:11 | 22.92616 | 54.71900 | 35839 ft | 476 kts | 261° |
| 2026-04-27 08:12 | 22.91220 | 54.64906 | 35846 ft | 476 kts | 261° |
| 2026-04-27 08:12 | 22.89819 | 54.57906 | 35861 ft | 477 kts | 261° |
| 2026-04-27 08:13 | 22.88409 | 54.50880 | 35861 ft | 476 kts | 261° |
| 2026-04-27 08:13 | 22.87002 | 54.43881 | 35865 ft | 476 kts | 261° |
| 2026-04-27 08:14 | 22.85597 | 54.36908 | 35865 ft | 476 kts | 261° |
| 2026-04-27 08:14 | 22.84176 | 54.29875 | 35872 ft | 478 kts | 260° |
| 2026-04-27 08:15 | 22.82758 | 54.22873 | 35873 ft | 477 kts | 260° |
| 2026-04-27 08:15 | 22.81334 | 54.15859 | 35872 ft | 477 kts | 260° |
| 2026-04-27 08:16 | 22.79910 | 54.08858 | 35877 ft | 477 kts | 260° |
| 2026-04-27 08:16 | 22.78479 | 54.01798 | 35867 ft | 477 kts | 262° |
| 2026-04-27 08:17 | 22.78153 | 53.94676 | 35875 ft | 473 kts | 274° |
| 2026-04-27 08:17 | 22.78395 | 53.87554 | 35856 ft | 471 kts | 274° |
| 2026-04-27 08:18 | 22.78635 | 53.80472 | 35854 ft | 472 kts | 274° |
| 2026-04-27 08:18 | 22.78871 | 53.73344 | 35846 ft | 473 kts | 274° |
| 2026-04-27 08:19 | 22.79101 | 53.66281 | 35847 ft | 473 kts | 274° |
| 2026-04-27 08:19 | 22.79328 | 53.59189 | 35845 ft | 472 kts | 274° |
| 2026-04-27 08:20 | 22.79552 | 53.52087 | 35846 ft | 472 kts | 274° |
| 2026-04-27 08:20 | 22.79773 | 53.44979 | 35844 ft | 473 kts | 274° |
| 2026-04-27 08:21 | 22.79991 | 53.37880 | 35843 ft | 473 kts | 274° |
| 2026-04-27 08:21 | 22.80203 | 53.30834 | 35853 ft | 471 kts | 273° |
| 2026-04-27 08:22 | 22.80414 | 53.23718 | 35848 ft | 472 kts | 273° |
| 2026-04-27 08:22 | 22.80622 | 53.16626 | 35850 ft | 471 kts | 273° |
| 2026-04-27 08:23 | 22.80825 | 53.09575 | 35850 ft | 472 kts | 273° |
| 2026-04-27 08:23 | 22.81027 | 53.02481 | 35854 ft | 472 kts | 273° |
| 2026-04-27 08:24 | 22.81225 | 52.95378 | 35855 ft | 473 kts | 273° |
| 2026-04-27 08:24 | 22.81419 | 52.88341 | 35852 ft | 473 kts | 273° |
| 2026-04-27 08:25 | 22.81612 | 52.81189 | 35860 ft | 472 kts | 273° |
| 2026-04-27 08:25 | 22.81800 | 52.74126 | 35863 ft | 471 kts | 273° |
| 2026-04-27 08:26 | 22.81986 | 52.67044 | 35867 ft | 471 kts | 273° |
| 2026-04-27 08:26 | 22.82168 | 52.59964 | 35866 ft | 470 kts | 273° |
| 2026-04-27 08:27 | 22.82346 | 52.52919 | 35866 ft | 471 kts | 273° |
| 2026-04-27 08:27 | 22.82515 | 52.45849 | 35865 ft | 470 kts | 273° |
| 2026-04-27 08:28 | 22.82662 | 52.38763 | 35862 ft | 470 kts | 273° |
| 2026-04-27 08:28 | 22.82805 | 52.31720 | 35872 ft | 471 kts | 272° |
| 2026-04-27 08:29 | 22.82946 | 52.24651 | 35864 ft | 470 kts | 272° |
| 2026-04-27 08:29 | 22.83084 | 52.17582 | 35867 ft | 469 kts | 272° |
| 2026-04-27 08:30 | 22.83219 | 52.10515 | 35866 ft | 468 kts | 272° |
| 2026-04-27 08:30 | 22.83350 | 52.03498 | 35859 ft | 468 kts | 272° |
| 2026-04-27 08:31 | 22.83479 | 51.96469 | 35854 ft | 468 kts | 272° |
| 2026-04-27 08:31 | 22.83605 | 51.89406 | 35842 ft | 468 kts | 272° |
| 2026-04-27 08:32 | 22.83727 | 51.82395 | 35836 ft | 469 kts | 272° |
| 2026-04-27 08:32 | 22.83846 | 51.75363 | 35832 ft | 468 kts | 272° |
| 2026-04-27 08:33 | 22.83963 | 51.68314 | 35832 ft | 469 kts | 272° |
| 2026-04-27 08:33 | 22.84076 | 51.61268 | 35834 ft | 469 kts | 272° |
| 2026-04-27 08:34 | 22.84186 | 51.54230 | 35835 ft | 469 kts | 272° |
| 2026-04-27 08:34 | 22.84235 | 51.47179 | 35830 ft | 469 kts | 268° |
| 2026-04-27 08:35 | 22.83210 | 51.40178 | 35837 ft | 470 kts | 261° |
| 2026-04-27 08:35 | 22.81986 | 51.33243 | 35845 ft | 470 kts | 261° |
| 2026-04-27 08:36 | 22.80754 | 51.26291 | 35848 ft | 470 kts | 261° |
| 2026-04-27 08:36 | 22.79528 | 51.19392 | 35846 ft | 471 kts | 261° |
| 2026-04-27 08:37 | 22.78287 | 51.12429 | 35849 ft | 470 kts | 261° |
| 2026-04-27 08:37 | 22.77048 | 51.05510 | 35849 ft | 470 kts | 261° |
| 2026-04-27 08:38 | 22.75797 | 50.98544 | 35849 ft | 470 kts | 261° |
| 2026-04-27 08:38 | 22.74552 | 50.91627 | 35855 ft | 469 kts | 261° |
| 2026-04-27 08:39 | 22.73301 | 50.84693 | 35854 ft | 470 kts | 261° |
| 2026-04-27 08:39 | 22.72050 | 50.77781 | 35858 ft | 470 kts | 261° |
| 2026-04-27 08:40 | 22.70787 | 50.70820 | 35857 ft | 470 kts | 261° |
| 2026-04-27 08:40 | 22.69529 | 50.63902 | 35856 ft | 470 kts | 261° |
| 2026-04-27 08:41 | 22.68272 | 50.57011 | 35858 ft | 470 kts | 261° |
| 2026-04-27 08:41 | 22.67004 | 50.50071 | 35856 ft | 471 kts | 261° |
| 2026-04-27 08:42 | 22.65733 | 50.43135 | 35855 ft | 469 kts | 261° |
| 2026-04-27 08:42 | 22.64460 | 50.36208 | 35857 ft | 470 kts | 261° |
| 2026-04-27 08:43 | 22.63190 | 50.29309 | 35869 ft | 470 kts | 260° |
| 2026-04-27 08:43 | 22.61909 | 50.22375 | 35873 ft | 470 kts | 260° |
| 2026-04-27 08:44 | 22.60628 | 50.15452 | 35872 ft | 470 kts | 260° |
| 2026-04-27 08:44 | 22.59349 | 50.08559 | 35870 ft | 470 kts | 260° |
| 2026-04-27 08:45 | 22.58056 | 50.01613 | 35871 ft | 470 kts | 260° |
| 2026-04-27 08:45 | 22.56767 | 49.94700 | 35868 ft | 470 kts | 260° |
| 2026-04-27 08:46 | 22.55474 | 49.87783 | 35870 ft | 470 kts | 260° |
| 2026-04-27 08:46 | 22.54184 | 49.80902 | 35869 ft | 470 kts | 260° |
| 2026-04-27 08:47 | 22.53787 | 49.73891 | 35868 ft | 469 kts | 275° |
| 2026-04-27 08:47 | 22.54435 | 49.66929 | 35865 ft | 461 kts | 276° |
| 2026-04-27 08:48 | 22.54765 | 49.63495 | 35863 ft | 450 kts | 276° |
| 2026-04-27 08:48 | 22.55082 | 49.60194 | 35870 ft | 446 kts | 276° |
| 2026-04-27 08:48 | 22.55719 | 49.53504 | 35866 ft | 449 kts | 276° |
| 2026-04-27 08:49 | 22.56358 | 49.46746 | 35869 ft | 448 kts | 276° |
| 2026-04-27 08:49 | 22.56987 | 49.40055 | 35867 ft | 448 kts | 276° |
| 2026-04-27 08:50 | 22.57609 | 49.33404 | 35877 ft | 448 kts | 275° |
| 2026-04-27 08:50 | 22.58235 | 49.26683 | 35884 ft | 447 kts | 275° |
| 2026-04-27 08:51 | 22.58853 | 49.20016 | 35883 ft | 446 kts | 275° |
| 2026-04-27 08:51 | 22.59469 | 49.13339 | 35884 ft | 447 kts | 275° |
| 2026-04-27 08:52 | 22.60080 | 49.06678 | 35878 ft | 447 kts | 275° |
| 2026-04-27 08:52 | 22.60689 | 49.00015 | 35873 ft | 446 kts | 275° |
| 2026-04-27 08:53 | 22.61297 | 48.93336 | 35870 ft | 446 kts | 275° |
| 2026-04-27 08:53 | 22.61902 | 48.86650 | 35872 ft | 447 kts | 275° |
| 2026-04-27 08:54 | 22.62501 | 48.80003 | 35874 ft | 446 kts | 275° |
| 2026-04-27 08:54 | 22.63097 | 48.73360 | 35876 ft | 445 kts | 275° |
| 2026-04-27 08:55 | 22.63692 | 48.66693 | 35878 ft | 446 kts | 276° |
| 2026-04-27 08:55 | 22.64285 | 48.60028 | 35878 ft | 444 kts | 275° |
| 2026-04-27 08:56 | 22.64870 | 48.53403 | 35880 ft | 443 kts | 275° |
| 2026-04-27 08:56 | 22.65454 | 48.46773 | 35883 ft | 443 kts | 275° |
| 2026-04-27 08:57 | 22.66325 | 48.36817 | 35878 ft | 441 kts | 275° |
| 2026-04-27 08:58 | 22.66900 | 48.30209 | 35885 ft | 445 kts | 275° |
| 2026-04-27 08:58 | 22.67476 | 48.23558 | 35885 ft | 441 kts | 275° |
| 2026-04-27 08:59 | 22.68045 | 48.16948 | 35886 ft | 441 kts | 275° |
| 2026-04-27 08:59 | 22.68842 | 48.10390 | 35887 ft | 442 kts | 284° |
| 2026-04-27 09:00 | 22.71374 | 48.04328 | 35888 ft | 448 kts | 301° |
| 2026-04-27 09:00 | 22.75719 | 47.99427 | 35904 ft | 456 kts | 320° |
| 2026-04-27 09:01 | 22.81105 | 47.95744 | 35916 ft | 458 kts | 324° |
| 2026-04-27 09:01 | 22.86529 | 47.92144 | 35921 ft | 458 kts | 323° |
| 2026-04-27 09:02 | 22.91987 | 47.88499 | 35921 ft | 457 kts | 323° |
| 2026-04-27 09:02 | 22.97368 | 47.84891 | 35928 ft | 457 kts | 323° |
| 2026-04-27 09:03 | 23.02457 | 47.81470 | 35935 ft | 457 kts | 323° |
| 2026-04-27 09:03 | 23.07852 | 47.77837 | 35934 ft | 457 kts | 323° |
| 2026-04-27 09:04 | 23.13278 | 47.74178 | 35941 ft | 457 kts | 323° |
| 2026-04-27 09:04 | 23.18677 | 47.70531 | 35944 ft | 457 kts | 323° |
| 2026-04-27 09:05 | 23.24069 | 47.66887 | 35948 ft | 456 kts | 322° |
| 2026-04-27 09:05 | 23.26717 | 47.65098 | 35618 ft | 449 kts | 322° |
| 2026-04-27 09:05 | 23.29393 | 47.63286 | 34684 ft | 453 kts | 322° |
| 2026-04-27 09:05 | 23.32058 | 47.61480 | 33809 ft | 455 kts | 322° |
| 2026-04-27 09:06 | 23.34763 | 47.59647 | 32975 ft | 455 kts | 322° |
| 2026-04-27 09:06 | 23.37433 | 47.57837 | 32187 ft | 456 kts | 322° |
| 2026-04-27 09:06 | 23.40130 | 47.56007 | 31386 ft | 458 kts | 322° |
| 2026-04-27 09:06 | 23.42826 | 47.54178 | 30589 ft | 459 kts | 322° |
| 2026-04-27 09:07 | 23.45404 | 47.52163 | 30078 ft | 446 kts | 314° |
| 2026-04-27 09:07 | 23.47550 | 47.49862 | 29602 ft | 434 kts | 306° |
| 2026-04-27 09:07 | 23.49394 | 47.47306 | 29084 ft | 427 kts | 302° |
| 2026-04-27 09:07 | 23.51178 | 47.44698 | 28519 ft | 427 kts | 302° |
| 2026-04-27 09:08 | 23.52958 | 47.42079 | 27943 ft | 438 kts | 302° |
| 2026-04-27 09:08 | 23.54771 | 47.39407 | 27369 ft | 439 kts | 302° |
| 2026-04-27 09:08 | 23.56561 | 47.36769 | 26799 ft | 436 kts | 302° |
| 2026-04-27 09:08 | 23.58353 | 47.34125 | 26231 ft | 432 kts | 301° |
| 2026-04-27 09:09 | 23.60138 | 47.31491 | 25676 ft | 429 kts | 301° |
| 2026-04-27 09:09 | 23.61906 | 47.28875 | 25111 ft | 428 kts | 301° |
| 2026-04-27 09:09 | 23.63649 | 47.26295 | 24534 ft | 426 kts | 301° |
| 2026-04-27 09:09 | 23.65402 | 47.23700 | 23943 ft | 424 kts | 301° |
| 2026-04-27 09:10 | 23.67143 | 47.21118 | 23349 ft | 422 kts | 301° |
| 2026-04-27 09:10 | 23.68865 | 47.18565 | 22761 ft | 420 kts | 301° |
| 2026-04-27 09:10 | 23.70595 | 47.15997 | 22182 ft | 417 kts | 301° |
| 2026-04-27 09:10 | 23.72305 | 47.13458 | 21607 ft | 414 kts | 301° |
| 2026-04-27 09:11 | 23.73989 | 47.10957 | 21053 ft | 412 kts | 302° |
| 2026-04-27 09:11 | 23.75689 | 47.08429 | 20490 ft | 411 kts | 302° |
| 2026-04-27 09:11 | 23.77385 | 47.05907 | 19900 ft | 409 kts | 302° |
| 2026-04-27 09:11 | 23.79041 | 47.03444 | 19332 ft | 406 kts | 302° |
| 2026-04-27 09:12 | 23.80703 | 47.00969 | 18763 ft | 403 kts | 303° |
| 2026-04-27 09:12 | 23.82352 | 46.98513 | 18207 ft | 401 kts | 303° |
| 2026-04-27 09:12 | 23.83986 | 46.96079 | 17643 ft | 399 kts | 303° |
| 2026-04-27 09:12 | 23.85634 | 46.93621 | 17066 ft | 397 kts | 304° |
| 2026-04-27 09:13 | 23.87264 | 46.91211 | 16507 ft | 396 kts | 306° |
| 2026-04-27 09:13 | 23.89159 | 46.89045 | 15943 ft | 397 kts | 317° |
| 2026-04-27 09:13 | 23.91412 | 46.87297 | 15443 ft | 396 kts | 327° |
| 2026-04-27 09:13 | 23.93812 | 46.85831 | 15004 ft | 395 kts | 328° |
| 2026-04-27 09:14 | 23.96191 | 46.84412 | 14557 ft | 393 kts | 329° |
| 2026-04-27 09:14 | 23.98591 | 46.82983 | 14118 ft | 393 kts | 329° |
| 2026-04-27 09:14 | 24.00999 | 46.81548 | 13660 ft | 393 kts | 329° |
| 2026-04-27 09:14 | 24.03399 | 46.80119 | 13190 ft | 391 kts | 329° |
| 2026-04-27 09:15 | 24.05783 | 46.78699 | 12732 ft | 389 kts | 329° |
| 2026-04-27 09:15 | 24.08157 | 46.77285 | 12285 ft | 386 kts | 329° |
| 2026-04-27 09:15 | 24.10510 | 46.75883 | 11863 ft | 384 kts | 329° |
| 2026-04-27 09:15 | 24.12835 | 46.74498 | 11774 ft | 383 kts | 329° |
| 2026-04-27 09:16 | 24.15172 | 46.73107 | 11769 ft | 384 kts | 329° |
| 2026-04-27 09:16 | 24.17540 | 46.71696 | 11795 ft | 382 kts | 329° |
| 2026-04-27 09:16 | 24.19897 | 46.70291 | 11834 ft | 383 kts | 329° |
| 2026-04-27 09:16 | 24.22226 | 46.68902 | 11873 ft | 383 kts | 329° |
| 2026-04-27 09:17 | 24.24566 | 46.67506 | 11928 ft | 383 kts | 329° |
| 2026-04-27 09:17 | 24.26929 | 46.66096 | 11990 ft | 385 kts | 329° |
| 2026-04-27 09:17 | 24.29278 | 46.64693 | 11984 ft | 385 kts | 329° |
| 2026-04-27 09:17 | 24.31622 | 46.63293 | 11981 ft | 384 kts | 329° |
| 2026-04-27 09:18 | 24.33950 | 46.61902 | 11986 ft | 385 kts | 329° |
| 2026-04-27 09:18 | 24.36318 | 46.60487 | 11991 ft | 385 kts | 329° |
| 2026-04-27 09:18 | 24.38680 | 46.59074 | 11999 ft | 383 kts | 329° |
| 2026-04-27 09:18 | 24.41010 | 46.57680 | 12009 ft | 384 kts | 329° |
| 2026-04-27 09:19 | 24.43374 | 46.56265 | 12014 ft | 384 kts | 329° |
| 2026-04-27 09:19 | 24.45720 | 46.54859 | 12010 ft | 384 kts | 329° |
| 2026-04-27 09:19 | 24.48074 | 46.53449 | 11756 ft | 384 kts | 329° |
| 2026-04-27 09:19 | 24.50386 | 46.52063 | 11539 ft | 380 kts | 329° |
| 2026-04-27 09:20 | 24.52794 | 46.50819 | 11450 ft | 381 kts | 339° |
| 2026-04-27 09:20 | 24.55347 | 46.49998 | 11443 ft | 384 kts | 343° |
| 2026-04-27 09:20 | 24.57943 | 46.49235 | 11344 ft | 386 kts | 343° |
| 2026-04-27 09:20 | 24.60558 | 46.48469 | 11113 ft | 384 kts | 343° |
| 2026-04-27 09:21 | 24.63134 | 46.47713 | 10874 ft | 383 kts | 343° |
| 2026-04-27 09:21 | 24.65687 | 46.46965 | 10637 ft | 381 kts | 343° |
| 2026-04-27 09:21 | 24.68259 | 46.46210 | 10398 ft | 379 kts | 343° |
| 2026-04-27 09:21 | 24.70793 | 46.45467 | 10157 ft | 378 kts | 343° |
| 2026-04-27 09:22 | 24.73334 | 46.44721 | 10053 ft | 377 kts | 343° |
| 2026-04-27 09:22 | 24.75885 | 46.43971 | 10040 ft | 379 kts | 343° |
| 2026-04-27 09:22 | 24.78444 | 46.43219 | 10037 ft | 378 kts | 343° |
| 2026-04-27 09:22 | 24.80991 | 46.42471 | 10042 ft | 378 kts | 343° |
| 2026-04-27 09:23 | 24.83515 | 46.41729 | 10020 ft | 370 kts | 343° |
| 2026-04-27 09:23 | 24.85940 | 46.41017 | 9977 ft | 354 kts | 343° |
| 2026-04-27 09:23 | 24.88287 | 46.40398 | 9919 ft | 339 kts | 350° |
| 2026-04-27 09:23 | 24.90607 | 46.40150 | 9864 ft | 323 kts | 353° |
| 2026-04-27 09:24 | 24.92775 | 46.39968 | 9818 ft | 306 kts | 353° |
| 2026-04-27 09:24 | 24.94895 | 46.39793 | 9524 ft | 302 kts | 353° |
| 2026-04-27 09:24 | 24.96992 | 46.39617 | 9100 ft | 303 kts | 353° |
| 2026-04-27 09:24 | 24.99097 | 46.39442 | 8781 ft | 301 kts | 354° |
| 2026-04-27 09:25 | 25.01191 | 46.39267 | 8425 ft | 301 kts | 354° |
| 2026-04-27 09:25 | 25.03263 | 46.39094 | 8118 ft | 298 kts | 354° |
| 2026-04-27 09:25 | 25.05299 | 46.38924 | 8088 ft | 285 kts | 354° |
| 2026-04-27 09:25 | 25.07252 | 46.38762 | 7959 ft | 277 kts | 354° |
| 2026-04-27 09:26 | 25.09155 | 46.38602 | 7665 ft | 276 kts | 354° |
| 2026-04-27 09:26 | 25.11079 | 46.38441 | 7355 ft | 275 kts | 354° |
| 2026-04-27 09:26 | 25.12982 | 46.38281 | 7084 ft | 273 kts | 355° |
| 2026-04-27 09:26 | 25.14878 | 46.38122 | 6812 ft | 271 kts | 355° |
| 2026-04-27 09:27 | 25.16729 | 46.37967 | 6774 ft | 258 kts | 355° |
| 2026-04-27 09:27 | 25.18481 | 46.37857 | 6663 ft | 249 kts | 4° |
| 2026-04-27 09:27 | 25.20147 | 46.38309 | 6336 ft | 248 kts | 28° |
| 2026-04-27 09:27 | 25.21493 | 46.39441 | 6017 ft | 244 kts | 53° |
| 2026-04-27 09:28 | 25.22442 | 46.40963 | 5849 ft | 239 kts | 61° |
| 2026-04-27 09:28 | 25.23307 | 46.42542 | 5785 ft | 241 kts | 63° |
| 2026-04-27 09:28 | 25.24148 | 46.44142 | 5732 ft | 240 kts | 63° |
| 2026-04-27 09:28 | 25.24873 | 46.45804 | 5679 ft | 235 kts | 78° |
| 2026-04-27 09:29 | 25.25004 | 46.47516 | 5606 ft | 218 kts | 101° |
| 2026-04-27 09:29 | 25.24583 | 46.49072 | 5547 ft | 207 kts | 118° |
| 2026-04-27 09:29 | 25.23732 | 46.50308 | 5488 ft | 200 kts | 141° |
| 2026-04-27 09:29 | 25.22659 | 46.51243 | 5435 ft | 195 kts | 147° |
| 2026-04-27 09:30 | 25.21535 | 46.52065 | 5384 ft | 193 kts | 150° |
| 2026-04-27 09:30 | 25.20373 | 46.52842 | 5329 ft | 193 kts | 151° |
| 2026-04-27 09:30 | 25.19217 | 46.53584 | 5275 ft | 193 kts | 152° |
| 2026-04-27 09:30 | 25.18043 | 46.54326 | 5222 ft | 193 kts | 152° |
| 2026-04-27 09:31 | 25.16874 | 46.55058 | 5171 ft | 193 kts | 152° |
| 2026-04-27 09:31 | 25.15692 | 46.55798 | 5115 ft | 192 kts | 152° |
| 2026-04-27 09:31 | 25.14530 | 46.56527 | 5062 ft | 191 kts | 152° |
| 2026-04-27 09:31 | 25.13365 | 46.57259 | 5022 ft | 192 kts | 152° |
| 2026-04-27 09:32 | 25.12212 | 46.57986 | 5023 ft | 191 kts | 152° |
| 2026-04-27 09:32 | 25.11075 | 46.58703 | 4948 ft | 185 kts | 152° |
| 2026-04-27 09:32 | 25.09971 | 46.59399 | 4720 ft | 181 kts | 152° |
| 2026-04-27 09:32 | 25.08885 | 46.60083 | 4500 ft | 176 kts | 152° |
| 2026-04-27 09:33 | 25.07838 | 46.60743 | 4283 ft | 174 kts | 152° |
| 2026-04-27 09:33 | 25.06774 | 46.61412 | 4069 ft | 175 kts | 152° |
| 2026-04-27 09:33 | 25.05730 | 46.62069 | 3857 ft | 173 kts | 152° |
| 2026-04-27 09:33 | 25.04694 | 46.62722 | 3641 ft | 166 kts | 152° |
| 2026-04-27 09:34 | 25.03690 | 46.63353 | 3442 ft | 167 kts | 151° |
| 2026-04-27 09:34 | 25.02708 | 46.63972 | 3243 ft | 153 kts | 151° |
| 2026-04-27 09:34 | 25.01795 | 46.64546 | 3057 ft | 149 kts | 151° |
| 2026-04-27 09:34 | 25.00879 | 46.65118 | 2874 ft | 150 kts | 152° |
| 2026-04-27 09:35 | 24.99960 | 46.65687 | 2679 ft | 151 kts | 151° |
| 2026-04-27 09:35 | 24.99061 | 46.66262 | 2495 ft | 150 kts | 150° |
| 2026-04-27 09:35 | 24.98147 | 46.66837 | 2307 ft | 150 kts | 152° |
| 2026-04-27 09:35 | 24.97239 | 46.67400 | 2128 ft | 151 kts | 150° |
| 2026-04-27 09:36 | 24.96354 | 46.67959 | 2058 ft | 132 kts | 150° |
| 2026-04-27 09:36 | 24.95699 | 46.68373 | 2058 ft | 81 kts | 150° |
| 2026-04-27 09:36 | 24.95307 | 46.68621 | 2057 ft | 53 kts | 150° |
| 2026-04-27 09:36 | 24.95061 | 46.68785 | 2057 ft | 31 kts | 136° |
| 2026-04-27 09:37 | 24.94972 | 46.68928 | 2057 ft | 12 kts | 110° |
| 2026-04-27 09:37 | 24.94959 | 46.69014 | 2057 ft | 7 kts | 86° |
| 2026-04-27 09:37 | 24.94969 | 46.69068 | 2057 ft | 6 kts | 70° |
| 2026-04-27 09:37 | 24.94990 | 46.69113 | 2057 ft | 6 kts | 61° |
| 2026-04-27 09:38 | 24.94995 | 46.69152 | 2057 ft | 4 kts | 114° |
| 2026-04-27 09:38 | 24.94963 | 46.69179 | 2057 ft | 7 kts | 149° |
| 2026-04-27 09:38 | 24.94904 | 46.69217 | 2057 ft | 11 kts | 149° |
| 2026-04-27 09:38 | 24.94823 | 46.69269 | 2057 ft | 15 kts | 150° |
| 2026-04-27 09:39 | 24.94722 | 46.69333 | 2057 ft | 18 kts | 150° |
| 2026-04-27 09:39 | 24.94615 | 46.69400 | 2057 ft | 16 kts | 150° |
| 2026-04-27 09:39 | 24.94534 | 46.69450 | 2057 ft | 8 kts | 150° |
| 2026-04-27 09:39 | 24.94505 | 46.69487 | 2057 ft | 5 kts | 101° |
| 2026-04-27 09:40 | 24.94519 | 46.69533 | 2057 ft | 7 kts | 60° |
| 2026-04-27 09:40 | 24.94553 | 46.69597 | 2057 ft | 11 kts | 60° |
| 2026-04-27 09:40 | 24.94598 | 46.69684 | 2057 ft | 14 kts | 60° |
| 2026-04-27 09:40 | 24.94655 | 46.69792 | 2057 ft | 17 kts | 60° |
| 2026-04-27 09:41 | 24.94720 | 46.69916 | 2057 ft | 20 kts | 60° |
| 2026-04-27 09:41 | 24.94795 | 46.70058 | 2057 ft | 22 kts | 60° |
| 2026-04-27 09:41 | 24.94877 | 46.70213 | 2057 ft | 24 kts | 60° |
| 2026-04-27 09:41 | 24.94961 | 46.70374 | 2057 ft | 23 kts | 60° |
| 2026-04-27 09:42 | 24.95038 | 46.70520 | 2057 ft | 21 kts | 60° |
| 2026-04-27 09:42 | 24.95109 | 46.70655 | 2057 ft | 19 kts | 60° |
| 2026-04-27 09:42 | 24.95172 | 46.70775 | 2056 ft | 17 kts | 60° |
| 2026-04-27 09:42 | 24.95230 | 46.70885 | 2056 ft | 15 kts | 60° |
| 2026-04-27 09:43 | 24.95281 | 46.70983 | 2056 ft | 9 kts | 60° |
| 2026-04-27 09:43 | 24.95316 | 46.71023 | 2056 ft | 7 kts | 16° |
| 2026-04-27 09:43 | 24.95379 | 46.70999 | 2056 ft | 11 kts | 331° |
| 2026-04-27 09:43 | 24.95463 | 46.70948 | 2056 ft | 15 kts | 330° |
| 2026-04-27 09:44 | 24.95566 | 46.70882 | 2056 ft | 18 kts | 330° |
| 2026-04-27 09:44 | 24.95687 | 46.70805 | 2056 ft | 21 kts | 330° |
| 2026-04-27 09:44 | 24.95823 | 46.70719 | 2056 ft | 23 kts | 330° |
| 2026-04-27 09:44 | 24.95972 | 46.70625 | 2056 ft | 24 kts | 330° |
| 2026-04-27 09:45 | 24.96110 | 46.70538 | 2056 ft | 22 kts | 330° |
| 2026-04-27 09:45 | 24.96232 | 46.70462 | 2057 ft | 18 kts | 330° |
| 2026-04-27 09:45 | 24.96318 | 46.70406 | 2057 ft | 10 kts | 330° |
| 2026-04-27 09:45 | 24.96351 | 46.70370 | 2057 ft | 5 kts | 260° |
| 2026-04-27 09:46 | 24.96339 | 46.70345 | 2057 ft | 0 kts | 240° |
| 2026-04-27 09:46 | 24.96337 | 46.70340 | 2057 ft | 2 kts | 236° |
| 2026-04-27 09:46 | 24.96309 | 46.70321 | 2057 ft | 7 kts | 198° |
| 2026-04-27 09:46 | 24.96264 | 46.70307 | 2057 ft | 5 kts | 195° |
| 2026-04-27 09:47 | 24.96236 | 46.70299 | 2057 ft | 1 kts | 195° |
| 2026-04-27 09:47 | 24.96227 | 46.70296 | 2057 ft | 1 kts | 194° |
| 2026-04-27 09:47 | 24.96221 | 46.70295 | 2057 ft | 0 kts | 194° |
| 2026-04-27 09:47 | 24.96220 | 46.70295 | 2057 ft | 0 kts | 194° |